Terminal Aerodrome Forecast
Issued by NWS

Home | Current Version | Previous Version | Text Only | Print | Product List | Glossary On
Versions: 1 2 3 4 5 6 7 8 9 10 11 12 13 14 15 16 17 18 19 20 21
967
FTUS46 KLOX 042330
TAFOXR
TAF
KOXR 042330Z 0500/0524 26012KT P6SM FEW020
     FM050400 VRB03KT P6SM SCT100
     FM050600 VRB03KT P6SM SCT015 OVC025
     FM051000 07006KT P6SM BKN015 OVC025
     FM051800 24008KT P6SM SCT015 OVC025
     FM052100 27012KT P6SM BKN025 OVC050=

USA.gov is the U.S. government's official web portal to all federal, state and local government web resources and services.